Mesa, Idaho
Current Conditions -  °F | °C
As of 11:51 AM on Friday 24 Oct 2014 (Local Time) from KMYL Reporting Station
Light Rain Light Rain  
Wind Chill: 42°   Ceiling: 5000
Heat Index: 42°   Visibility: 10mi
Dew Point: 40°   Wind: 3mph
Humidity: 92%   Direction: 30°NNE
Pressure: 30.13"   Gusts: NA
Location:  44.63°N, 116.45°W
Report Text: KMYL 241751Z AUTO 03003KT 10SM -RA FEW044 BKN050 OVC070 06/04 A3013 RMK AO2 SLP204 P0003 60017 T00560044 10056 20050 50005
Loading
Personal Weather Stations






























Interactive Weather Map
Tropical Storm Tracking
New forecast layout! Learn more

10-Day Weather Forecast

Advertisements
Track Severe Weather on mobile